sensor_id;sensor_type;location;lat;lon;timestamp;P1;durP1;ratioP1;P2;durP2;ratioP2
54835;SDS011;43486;43.574;1.476;2022-08-21T00:01:13;3.40;;;1.38;;
54835;SDS011;43486;43.574;1.476;2022-08-21T00:03:41;3.35;;;1.50;;
54835;SDS011;43486;43.574;1.476;2022-08-21T00:06:06;4.00;;;1.08;;
54835;SDS011;43486;43.574;1.476;2022-08-21T00:08:31;2.70;;;1.30;;
54835;SDS011;43486;43.574;1.476;2022-08-21T00:10:57;2.88;;;1.58;;
54835;SDS011;43486;43.574;1.476;2022-08-21T00:13:22;2.55;;;1.15;;
54835;SDS011;43486;43.574;1.476;2022-08-21T00:15:48;4.07;;;1.15;;
54835;SDS011;43486;43.574;1.476;2022-08-21T00:18:14;5.40;;;1.40;;
54835;SDS011;43486;43.574;1.476;2022-08-21T00:20:39;3.10;;;1.63;;
54835;SDS011;43486;43.574;1.476;2022-08-21T00:23:06;2.38;;;1.42;;
54835;SDS011;43486;43.574;1.476;2022-08-21T00:25:32;1.73;;;1.60;;
54835;SDS011;43486;43.574;1.476;2022-08-21T00:27:58;5.65;;;2.22;;
54835;SDS011;43486;43.574;1.476;2022-08-21T00:30:24;2.80;;;1.35;;
54835;SDS011;43486;43.574;1.476;2022-08-21T00:32:51;2.25;;;0.93;;
54835;SDS011;43486;43.574;1.476;2022-08-21T00:35:18;4.72;;;1.20;;
54835;SDS011;43486;43.574;1.476;2022-08-21T00:37:46;2.47;;;1.25;;
54835;SDS011;43486;43.574;1.476;2022-08-21T00:40:13;2.67;;;1.33;;
54835;SDS011;43486;43.574;1.476;2022-08-21T00:42:42;2.03;;;1.13;;
54835;SDS011;43486;43.574;1.476;2022-08-21T00:45:09;1.40;;;0.95;;
54835;SDS011;43486;43.574;1.476;2022-08-21T00:47:35;2.67;;;1.52;;
54835;SDS011;43486;43.574;1.476;2022-08-21T00:50:00;2.17;;;1.17;;
54835;SDS011;43486;43.574;1.476;2022-08-21T00:52:27;4.28;;;1.27;;
54835;SDS011;43486;43.574;1.476;2022-08-21T00:54:54;2.17;;;1.33;;
54835;SDS011;43486;43.574;1.476;2022-08-21T00:57:22;3.28;;;1.08;;
54835;SDS011;43486;43.574;1.476;2022-08-21T00:59:52;1.60;;;1.13;;
54835;SDS011;43486;43.574;1.476;2022-08-21T01:02:19;4.75;;;1.38;;
54835;SDS011;43486;43.574;1.476;2022-08-21T01:04:45;3.80;;;1.50;;
54835;SDS011;43486;43.574;1.476;2022-08-21T01:07:11;3.53;;;1.58;;
54835;SDS011;43486;43.574;1.476;2022-08-21T01:09:37;1.30;;;0.90;;
54835;SDS011;43486;43.574;1.476;2022-08-21T01:12:03;2.90;;;1.27;;
54835;SDS011;43486;43.574;1.476;2022-08-21T01:14:29;3.17;;;1.73;;
54835;SDS011;43486;43.574;1.476;2022-08-21T01:16:55;1.00;;;0.70;;
54835;SDS011;43486;43.574;1.476;2022-08-21T01:19:21;1.67;;;1.13;;
54835;SDS011;43486;43.574;1.476;2022-08-21T01:21:47;3.13;;;1.50;;
54835;SDS011;43486;43.574;1.476;2022-08-21T01:24:13;2.03;;;1.08;;
54835;SDS011;43486;43.574;1.476;2022-08-21T01:26:39;3.35;;;1.55;;
54835;SDS011;43486;43.574;1.476;2022-08-21T01:29:07;1.13;;;0.90;;
54835;SDS011;43486;43.574;1.476;2022-08-21T01:31:45;2.08;;;1.10;;
54835;SDS011;43486;43.574;1.476;2022-08-21T01:34:11;2.75;;;1.25;;
54835;SDS011;43486;43.574;1.476;2022-08-21T01:36:36;1.40;;;1.05;;
54835;SDS011;43486;43.574;1.476;2022-08-21T01:39:03;3.35;;;1.33;;
54835;SDS011;43486;43.574;1.476;2022-08-21T01:41:29;2.30;;;1.40;;
54835;SDS011;43486;43.574;1.476;2022-08-21T01:43:55;1.92;;;1.17;;
54835;SDS011;43486;43.574;1.476;2022-08-21T01:46:20;2.63;;;1.80;;
54835;SDS011;43486;43.574;1.476;2022-08-21T01:48:45;4.05;;;1.80;;
54835;SDS011;43486;43.574;1.476;2022-08-21T01:51:11;1.92;;;1.45;;
54835;SDS011;43486;43.574;1.476;2022-08-21T01:53:36;2.65;;;1.30;;
54835;SDS011;43486;43.574;1.476;2022-08-21T01:56:03;2.72;;;1.38;;
54835;SDS011;43486;43.574;1.476;2022-08-21T01:58:31;3.30;;;1.48;;
54835;SDS011;43486;43.574;1.476;2022-08-21T02:00:56;1.90;;;0.98;;
54835;SDS011;43486;43.574;1.476;2022-08-21T02:03:21;1.90;;;1.38;;
54835;SDS011;43486;43.574;1.476;2022-08-21T02:05:47;2.22;;;1.30;;
54835;SDS011;43486;43.574;1.476;2022-08-21T02:08:12;2.33;;;1.35;;
54835;SDS011;43486;43.574;1.476;2022-08-21T02:10:38;2.15;;;1.13;;
54835;SDS011;43486;43.574;1.476;2022-08-21T02:13:03;2.22;;;1.08;;
54835;SDS011;43486;43.574;1.476;2022-08-21T02:15:30;2.67;;;1.40;;
54835;SDS011;43486;43.574;1.476;2022-08-21T02:17:57;2.42;;;1.17;;
54835;SDS011;43486;43.574;1.476;2022-08-21T02:20:26;1.08;;;0.85;;
54835;SDS011;43486;43.574;1.476;2022-08-21T02:22:53;2.60;;;1.45;;
54835;SDS011;43486;43.574;1.476;2022-08-21T02:25:19;1.85;;;1.00;;
54835;SDS011;43486;43.574;1.476;2022-08-21T02:27:45;3.53;;;1.15;;
54835;SDS011;43486;43.574;1.476;2022-08-21T02:30:23;3.75;;;1.63;;
54835;SDS011;43486;43.574;1.476;2022-08-21T02:32:51;2.15;;;1.30;;
54835;SDS011;43486;43.574;1.476;2022-08-21T02:35:16;2.63;;;1.15;;
54835;SDS011;43486;43.574;1.476;2022-08-21T02:37:44;2.78;;;1.23;;
54835;SDS011;43486;43.574;1.476;2022-08-21T02:40:12;4.88;;;1.77;;
54835;SDS011;43486;43.574;1.476;2022-08-21T02:42:38;1.45;;;0.95;;
54835;SDS011;43486;43.574;1.476;2022-08-21T02:45:05;2.45;;;1.27;;
54835;SDS011;43486;43.574;1.476;2022-08-21T02:47:31;2.70;;;1.38;;
54835;SDS011;43486;43.574;1.476;2022-08-21T02:49:56;1.83;;;1.02;;
54835;SDS011;43486;43.574;1.476;2022-08-21T02:52:22;2.30;;;1.35;;
54835;SDS011;43486;43.574;1.476;2022-08-21T02:54:47;9.85;;;1.48;;
54835;SDS011;43486;43.574;1.476;2022-08-21T02:57:12;1.27;;;1.05;;
54835;SDS011;43486;43.574;1.476;2022-08-21T02:59:38;1.98;;;1.20;;
54835;SDS011;43486;43.574;1.476;2022-08-21T03:02:05;1.77;;;1.10;;
54835;SDS011;43486;43.574;1.476;2022-08-21T03:04:31;2.00;;;1.30;;
54835;SDS011;43486;43.574;1.476;2022-08-21T03:06:56;3.15;;;1.65;;
54835;SDS011;43486;43.574;1.476;2022-08-21T03:09:22;1.65;;;0.80;;
54835;SDS011;43486;43.574;1.476;2022-08-21T03:11:47;3.47;;;1.58;;
54835;SDS011;43486;43.574;1.476;2022-08-21T03:14:13;2.88;;;1.20;;
54835;SDS011;43486;43.574;1.476;2022-08-21T03:16:38;1.27;;;0.77;;
54835;SDS011;43486;43.574;1.476;2022-08-21T03:19:03;2.85;;;1.35;;
54835;SDS011;43486;43.574;1.476;2022-08-21T03:21:29;1.02;;;0.90;;
54835;SDS011;43486;43.574;1.476;2022-08-21T03:23:55;3.03;;;1.52;;
54835;SDS011;43486;43.574;1.476;2022-08-21T03:26:20;3.00;;;1.45;;
54835;SDS011;43486;43.574;1.476;2022-08-21T03:28:46;2.08;;;1.13;;
54835;SDS011;43486;43.574;1.476;2022-08-21T03:31:11;4.45;;;1.52;;
54835;SDS011;43486;43.574;1.476;2022-08-21T03:33:36;2.88;;;1.23;;
54835;SDS011;43486;43.574;1.476;2022-08-21T03:36:04;3.42;;;1.67;;
54835;SDS011;43486;43.574;1.476;2022-08-21T03:38:31;1.63;;;1.08;;
54835;SDS011;43486;43.574;1.476;2022-08-21T03:40:58;3.45;;;1.75;;
54835;SDS011;43486;43.574;1.476;2022-08-21T03:43:25;2.75;;;0.95;;
54835;SDS011;43486;43.574;1.476;2022-08-21T03:45:50;2.00;;;1.23;;
54835;SDS011;43486;43.574;1.476;2022-08-21T03:48:16;2.00;;;1.10;;
54835;SDS011;43486;43.574;1.476;2022-08-21T03:50:42;1.38;;;0.98;;
54835;SDS011;43486;43.574;1.476;2022-08-21T03:53:09;1.40;;;1.00;;
54835;SDS011;43486;43.574;1.476;2022-08-21T03:55:36;1.58;;;1.02;;
54835;SDS011;43486;43.574;1.476;2022-08-21T03:58:01;2.65;;;1.35;;
54835;SDS011;43486;43.574;1.476;2022-08-21T04:00:27;1.42;;;1.02;;
54835;SDS011;43486;43.574;1.476;2022-08-21T04:02:52;4.45;;;1.70;;
54835;SDS011;43486;43.574;1.476;2022-08-21T04:05:18;2.53;;;1.27;;
54835;SDS011;43486;43.574;1.476;2022-08-21T04:07:58;2.83;;;1.13;;
54835;SDS011;43486;43.574;1.476;2022-08-21T04:10:25;1.77;;;1.13;;
54835;SDS011;43486;43.574;1.476;2022-08-21T04:12:52;1.45;;;1.08;;
54835;SDS011;43486;43.574;1.476;2022-08-21T04:15:18;1.67;;;1.30;;
54835;SDS011;43486;43.574;1.476;2022-08-21T04:17:44;1.48;;;0.93;;
54835;SDS011;43486;43.574;1.476;2022-08-21T04:20:10;1.95;;;1.00;;
54835;SDS011;43486;43.574;1.476;2022-08-21T04:22:35;3.03;;;1.15;;
54835;SDS011;43486;43.574;1.476;2022-08-21T04:25:01;2.00;;;1.42;;
54835;SDS011;43486;43.574;1.476;2022-08-21T04:27:26;1.42;;;0.93;;
54835;SDS011;43486;43.574;1.476;2022-08-21T04:29:51;2.50;;;1.23;;
54835;SDS011;43486;43.574;1.476;2022-08-21T04:32:23;3.65;;;1.52;;
54835;SDS011;43486;43.574;1.476;2022-08-21T04:34:49;1.23;;;0.77;;
54835;SDS011;43486;43.574;1.476;2022-08-21T04:37:15;1.70;;;1.13;;
54835;SDS011;43486;43.574;1.476;2022-08-21T04:39:40;2.92;;;1.30;;
54835;SDS011;43486;43.574;1.476;2022-08-21T04:42:06;1.23;;;0.73;;
54835;SDS011;43486;43.574;1.476;2022-08-21T04:44:32;1.27;;;0.95;;
54835;SDS011;43486;43.574;1.476;2022-08-21T04:46:57;2.60;;;1.67;;
54835;SDS011;43486;43.574;1.476;2022-08-21T04:49:23;1.63;;;0.98;;
54835;SDS011;43486;43.574;1.476;2022-08-21T04:51:48;2.17;;;1.13;;
54835;SDS011;43486;43.574;1.476;2022-08-21T04:54:16;2.03;;;1.00;;
54835;SDS011;43486;43.574;1.476;2022-08-21T04:56:44;2.30;;;1.10;;
54835;SDS011;43486;43.574;1.476;2022-08-21T04:59:15;2.05;;;1.15;;
54835;SDS011;43486;43.574;1.476;2022-08-21T05:01:46;1.45;;;1.13;;
54835;SDS011;43486;43.574;1.476;2022-08-21T05:04:13;1.00;;;0.90;;
54835;SDS011;43486;43.574;1.476;2022-08-21T05:06:40;2.58;;;1.27;;
54835;SDS011;43486;43.574;1.476;2022-08-21T05:09:07;1.15;;;0.85;;
54835;SDS011;43486;43.574;1.476;2022-08-21T05:11:34;1.95;;;1.13;;
54835;SDS011;43486;43.574;1.476;2022-08-21T05:14:00;1.58;;;0.90;;
54835;SDS011;43486;43.574;1.476;2022-08-21T05:16:25;2.30;;;1.50;;
54835;SDS011;43486;43.574;1.476;2022-08-21T05:18:51;3.85;;;1.10;;
54835;SDS011;43486;43.574;1.476;2022-08-21T05:21:17;1.13;;;0.95;;
54835;SDS011;43486;43.574;1.476;2022-08-21T05:23:42;1.10;;;1.00;;
54835;SDS011;43486;43.574;1.476;2022-08-21T05:26:08;1.40;;;0.90;;
54835;SDS011;43486;43.574;1.476;2022-08-21T05:28:33;2.45;;;1.40;;
54835;SDS011;43486;43.574;1.476;2022-08-21T05:30:59;2.58;;;1.45;;
54835;SDS011;43486;43.574;1.476;2022-08-21T05:33:24;2.05;;;1.08;;
54835;SDS011;43486;43.574;1.476;2022-08-21T05:35:50;1.33;;;0.90;;
54835;SDS011;43486;43.574;1.476;2022-08-21T05:38:17;2.08;;;1.42;;
54835;SDS011;43486;43.574;1.476;2022-08-21T05:40:42;1.10;;;1.00;;
54835;SDS011;43486;43.574;1.476;2022-08-21T05:43:08;1.55;;;1.08;;
54835;SDS011;43486;43.574;1.476;2022-08-21T05:45:33;1.75;;;1.08;;
54835;SDS011;43486;43.574;1.476;2022-08-21T05:48:05;1.40;;;0.90;;
54835;SDS011;43486;43.574;1.476;2022-08-21T05:50:40;3.13;;;1.23;;
54835;SDS011;43486;43.574;1.476;2022-08-21T05:53:06;0.80;;;0.80;;
54835;SDS011;43486;43.574;1.476;2022-08-21T05:55:32;1.52;;;0.98;;
54835;SDS011;43486;43.574;1.476;2022-08-21T05:57:57;6.38;;;1.60;;
54835;SDS011;43486;43.574;1.476;2022-08-21T06:00:23;2.40;;;1.23;;
54835;SDS011;43486;43.574;1.476;2022-08-21T06:02:49;1.08;;;0.70;;
54835;SDS011;43486;43.574;1.476;2022-08-21T06:05:15;1.00;;;0.93;;
54835;SDS011;43486;43.574;1.476;2022-08-21T06:07:41;1.27;;;1.05;;
54835;SDS011;43486;43.574;1.476;2022-08-21T06:10:07;2.72;;;0.88;;
54835;SDS011;43486;43.574;1.476;2022-08-21T06:12:32;1.13;;;0.90;;
54835;SDS011;43486;43.574;1.476;2022-08-21T06:14:58;1.20;;;0.80;;
54835;SDS011;43486;43.574;1.476;2022-08-21T06:17:23;0.98;;;0.70;;
54835;SDS011;43486;43.574;1.476;2022-08-21T06:19:52;1.15;;;0.82;;
54835;SDS011;43486;43.574;1.476;2022-08-21T06:22:19;0.52;;;0.50;;
54835;SDS011;43486;43.574;1.476;2022-08-21T06:24:44;1.00;;;0.90;;
54835;SDS011;43486;43.574;1.476;2022-08-21T06:27:10;3.38;;;1.80;;
54835;SDS011;43486;43.574;1.476;2022-08-21T06:29:35;1.88;;;1.30;;
54835;SDS011;43486;43.574;1.476;2022-08-21T06:32:01;1.17;;;0.88;;
54835;SDS011;43486;43.574;1.476;2022-08-21T06:34:27;1.48;;;1.10;;
54835;SDS011;43486;43.574;1.476;2022-08-21T06:36:53;3.17;;;1.63;;
54835;SDS011;43486;43.574;1.476;2022-08-21T06:39:18;2.08;;;1.00;;
54835;SDS011;43486;43.574;1.476;2022-08-21T06:41:44;1.70;;;0.90;;
54835;SDS011;43486;43.574;1.476;2022-08-21T06:44:10;1.90;;;1.00;;
54835;SDS011;43486;43.574;1.476;2022-08-21T06:46:35;2.60;;;1.05;;
54835;SDS011;43486;43.574;1.476;2022-08-21T06:49:00;6.63;;;1.40;;
54835;SDS011;43486;43.574;1.476;2022-08-21T06:51:26;2.22;;;0.93;;
54835;SDS011;43486;43.574;1.476;2022-08-21T06:53:52;1.95;;;1.05;;
54835;SDS011;43486;43.574;1.476;2022-08-21T06:56:17;1.73;;;0.95;;
54835;SDS011;43486;43.574;1.476;2022-08-21T06:58:43;2.58;;;1.20;;
54835;SDS011;43486;43.574;1.476;2022-08-21T07:01:09;1.58;;;1.05;;
54835;SDS011;43486;43.574;1.476;2022-08-21T07:03:41;1.58;;;1.00;;
54835;SDS011;43486;43.574;1.476;2022-08-21T07:06:08;3.30;;;1.38;;
54835;SDS011;43486;43.574;1.476;2022-08-21T07:08:35;2.03;;;1.27;;
54835;SDS011;43486;43.574;1.476;2022-08-21T07:11:02;1.85;;;1.05;;
54835;SDS011;43486;43.574;1.476;2022-08-21T07:13:30;1.67;;;0.88;;
54835;SDS011;43486;43.574;1.476;2022-08-21T07:15:55;1.88;;;1.00;;
54835;SDS011;43486;43.574;1.476;2022-08-21T07:18:21;2.35;;;1.13;;
54835;SDS011;43486;43.574;1.476;2022-08-21T07:20:46;2.80;;;1.40;;
54835;SDS011;43486;43.574;1.476;2022-08-21T07:23:14;0.65;;;0.65;;
54835;SDS011;43486;43.574;1.476;2022-08-21T07:25:46;1.75;;;0.95;;
54835;SDS011;43486;43.574;1.476;2022-08-21T07:28:11;3.40;;;1.45;;
54835;SDS011;43486;43.574;1.476;2022-08-21T07:30:37;0.77;;;0.75;;
54835;SDS011;43486;43.574;1.476;2022-08-21T07:33:02;1.88;;;1.00;;
54835;SDS011;43486;43.574;1.476;2022-08-21T07:35:28;1.15;;;0.80;;
54835;SDS011;43486;43.574;1.476;2022-08-21T07:37:53;2.40;;;1.00;;
54835;SDS011;43486;43.574;1.476;2022-08-21T07:40:19;2.35;;;1.35;;
54835;SDS011;43486;43.574;1.476;2022-08-21T07:42:45;1.40;;;0.88;;
54835;SDS011;43486;43.574;1.476;2022-08-21T07:45:12;1.88;;;1.23;;
54835;SDS011;43486;43.574;1.476;2022-08-21T07:47:37;2.38;;;1.25;;
54835;SDS011;43486;43.574;1.476;2022-08-21T07:50:04;5.45;;;1.48;;
54835;SDS011;43486;43.574;1.476;2022-08-21T07:52:30;2.17;;;1.05;;
54835;SDS011;43486;43.574;1.476;2022-08-21T07:54:55;1.55;;;1.13;;
54835;SDS011;43486;43.574;1.476;2022-08-21T07:57:21;1.17;;;0.98;;
54835;SDS011;43486;43.574;1.476;2022-08-21T07:59:46;0.70;;;0.70;;
54835;SDS011;43486;43.574;1.476;2022-08-21T08:02:21;2.13;;;1.10;;
54835;SDS011;43486;43.574;1.476;2022-08-21T08:04:47;3.08;;;1.58;;
54835;SDS011;43486;43.574;1.476;2022-08-21T08:07:13;0.65;;;0.65;;
54835;SDS011;43486;43.574;1.476;2022-08-21T08:09:39;1.83;;;0.95;;
54835;SDS011;43486;43.574;1.476;2022-08-21T08:12:04;1.17;;;0.90;;
54835;SDS011;43486;43.574;1.476;2022-08-21T08:14:30;2.33;;;1.27;;
54835;SDS011;43486;43.574;1.476;2022-08-21T08:16:56;1.30;;;0.88;;
54835;SDS011;43486;43.574;1.476;2022-08-21T08:19:21;1.38;;;0.95;;
54835;SDS011;43486;43.574;1.476;2022-08-21T08:21:46;1.50;;;1.20;;
54835;SDS011;43486;43.574;1.476;2022-08-21T08:24:12;1.50;;;1.10;;
54835;SDS011;43486;43.574;1.476;2022-08-21T08:26:37;4.13;;;1.00;;
54835;SDS011;43486;43.574;1.476;2022-08-21T08:29:03;0.70;;;0.70;;
54835;SDS011;43486;43.574;1.476;2022-08-21T08:31:28;1.52;;;0.75;;
54835;SDS011;43486;43.574;1.476;2022-08-21T08:33:53;1.20;;;0.90;;
54835;SDS011;43486;43.574;1.476;2022-08-21T08:36:19;1.38;;;0.75;;
54835;SDS011;43486;43.574;1.476;2022-08-21T08:38:45;1.27;;;0.73;;
54835;SDS011;43486;43.574;1.476;2022-08-21T08:41:13;1.02;;;0.90;;
54835;SDS011;43486;43.574;1.476;2022-08-21T08:43:42;3.83;;;1.00;;
54835;SDS011;43486;43.574;1.476;2022-08-21T08:46:16;1.60;;;1.15;;
54835;SDS011;43486;43.574;1.476;2022-08-21T08:48:52;1.05;;;0.63;;
54835;SDS011;43486;43.574;1.476;2022-08-21T08:51:28;1.13;;;0.95;;
54835;SDS011;43486;43.574;1.476;2022-08-21T08:54:12;3.17;;;1.20;;
54835;SDS011;43486;43.574;1.476;2022-08-21T08:56:41;1.50;;;1.10;;
54835;SDS011;43486;43.574;1.476;2022-08-21T08:59:13;1.95;;;1.48;;
54835;SDS011;43486;43.574;1.476;2022-08-21T09:01:41;2.28;;;1.10;;
54835;SDS011;43486;43.574;1.476;2022-08-21T09:04:07;1.35;;;1.02;;
54835;SDS011;43486;43.574;1.476;2022-08-21T09:12:25;1.15;;;0.75;;
54835;SDS011;43486;43.574;1.476;2022-08-21T09:25:45;0.60;;;0.60;;
54835;SDS011;43486;43.574;1.476;2022-08-21T09:28:18;1.90;;;0.88;;
54835;SDS011;43486;43.574;1.476;2022-08-21T09:30:43;3.35;;;1.02;;
54835;SDS011;43486;43.574;1.476;2022-08-21T09:33:09;2.55;;;1.45;;
54835;SDS011;43486;43.574;1.476;2022-08-21T09:35:47;2.17;;;1.05;;
54835;SDS011;43486;43.574;1.476;2022-08-21T09:38:24;1.40;;;0.90;;
54835;SDS011;43486;43.574;1.476;2022-08-21T09:40:56;1.58;;;1.10;;
54835;SDS011;43486;43.574;1.476;2022-08-21T09:43:23;1.25;;;1.00;;
54835;SDS011;43486;43.574;1.476;2022-08-21T09:46:03;1.23;;;0.70;;
54835;SDS011;43486;43.574;1.476;2022-08-21T09:48:40;1.83;;;0.90;;
54835;SDS011;43486;43.574;1.476;2022-08-21T09:51:12;0.90;;;0.73;;
54835;SDS011;43486;43.574;1.476;2022-08-21T09:53:43;1.23;;;0.88;;
54835;SDS011;43486;43.574;1.476;2022-08-21T09:56:19;1.48;;;1.05;;
54835;SDS011;43486;43.574;1.476;2022-08-21T09:59:12;1.55;;;1.00;;
54835;SDS011;43486;43.574;1.476;2022-08-21T10:01:46;1.83;;;0.90;;
54835;SDS011;43486;43.574;1.476;2022-08-21T10:04:14;1.90;;;1.00;;
54835;SDS011;43486;43.574;1.476;2022-08-21T10:06:40;1.25;;;1.10;;
54835;SDS011;43486;43.574;1.476;2022-08-21T10:09:08;1.13;;;1.02;;
54835;SDS011;43486;43.574;1.476;2022-08-21T10:11:38;1.92;;;1.30;;
54835;SDS011;43486;43.574;1.476;2022-08-21T10:16:32;1.03;;;0.80;;
54835;SDS011;43486;43.574;1.476;2022-08-21T10:22:23;1.65;;;0.98;;
54835;SDS011;43486;43.574;1.476;2022-08-21T10:24:26;1.25;;;0.93;;
54835;SDS011;43486;43.574;1.476;2022-08-21T10:40:50;2.03;;;1.15;;
54835;SDS011;43486;43.574;1.476;2022-08-21T10:50:08;2.42;;;1.00;;
54835;SDS011;43486;43.574;1.476;2022-08-21T10:52:15;2.40;;;1.00;;
54835;SDS011;43486;43.574;1.476;2022-08-21T10:54:52;2.03;;;1.20;;
54835;SDS011;43486;43.574;1.476;2022-08-21T11:00:06;1.60;;;1.20;;
54835;SDS011;43486;43.574;1.476;2022-08-21T11:02:59;4.05;;;1.08;;
54835;SDS011;43486;43.574;1.476;2022-08-21T11:05:41;2.05;;;1.00;;
54835;SDS011;43486;43.574;1.476;2022-08-21T11:08:12;2.05;;;1.02;;
54835;SDS011;43486;43.574;1.476;2022-08-21T11:13:39;1.88;;;1.30;;
54835;SDS011;43486;43.574;1.476;2022-08-21T11:16:23;2.65;;;1.20;;
54835;SDS011;43486;43.574;1.476;2022-08-21T11:19:05;2.53;;;1.20;;
54835;SDS011;43486;43.574;1.476;2022-08-21T11:21:47;1.50;;;1.15;;
54835;SDS011;43486;43.574;1.476;2022-08-21T11:24:22;1.65;;;1.00;;
54835;SDS011;43486;43.574;1.476;2022-08-21T11:30:00;2.33;;;1.13;;
54835;SDS011;43486;43.574;1.476;2022-08-21T11:38:27;1.83;;;1.00;;
54835;SDS011;43486;43.574;1.476;2022-08-21T11:41:08;1.05;;;0.90;;
54835;SDS011;43486;43.574;1.476;2022-08-21T11:46:12;2.92;;;1.20;;
54835;SDS011;43486;43.574;1.476;2022-08-21T11:51:25;1.48;;;1.00;;
54835;SDS011;43486;43.574;1.476;2022-08-21T11:56:50;6.07;;;1.48;;
54835;SDS011;43486;43.574;1.476;2022-08-21T12:02:03;2.78;;;1.38;;
54835;SDS011;43486;43.574;1.476;2022-08-21T12:04:35;2.17;;;1.15;;
54835;SDS011;43486;43.574;1.476;2022-08-21T12:07:13;2.65;;;1.35;;
54835;SDS011;43486;43.574;1.476;2022-08-21T12:09:50;1.73;;;1.08;;
54835;SDS011;43486;43.574;1.476;2022-08-21T12:12:36;4.10;;;1.50;;
54835;SDS011;43486;43.574;1.476;2022-08-21T12:15:24;3.05;;;1.58;;
54835;SDS011;43486;43.574;1.476;2022-08-21T12:23:12;1.73;;;1.15;;
54835;SDS011;43486;43.574;1.476;2022-08-21T12:26:24;2.75;;;1.38;;
54835;SDS011;43486;43.574;1.476;2022-08-21T12:28:39;2.45;;;1.52;;
54835;SDS011;43486;43.574;1.476;2022-08-21T12:31:04;5.80;;;1.05;;
54835;SDS011;43486;43.574;1.476;2022-08-21T12:33:42;5.00;;;1.92;;
54835;SDS011;43486;43.574;1.476;2022-08-21T12:36:20;3.10;;;1.67;;
54835;SDS011;43486;43.574;1.476;2022-08-21T12:44:08;4.20;;;2.25;;
54835;SDS011;43486;43.574;1.476;2022-08-21T12:46:42;6.03;;;1.98;;
54835;SDS011;43486;43.574;1.476;2022-08-21T12:49:19;6.25;;;2.22;;
54835;SDS011;43486;43.574;1.476;2022-08-21T12:51:55;8.07;;;2.05;;
54835;SDS011;43486;43.574;1.476;2022-08-21T12:54:28;8.48;;;2.08;;
54835;SDS011;43486;43.574;1.476;2022-08-21T12:56:58;4.75;;;2.47;;
54835;SDS011;43486;43.574;1.476;2022-08-21T12:59:25;4.70;;;1.95;;
54835;SDS011;43486;43.574;1.476;2022-08-21T13:01:51;10.10;;;2.30;;
54835;SDS011;43486;43.574;1.476;2022-08-21T13:04:21;8.13;;;1.83;;
54835;SDS011;43486;43.574;1.476;2022-08-21T13:06:52;4.28;;;1.50;;
54835;SDS011;43486;43.574;1.476;2022-08-21T13:09:20;3.15;;;1.75;;
54835;SDS011;43486;43.574;1.476;2022-08-21T13:11:49;6.72;;;1.63;;
54835;SDS011;43486;43.574;1.476;2022-08-21T13:14:35;3.35;;;1.67;;
54835;SDS011;43486;43.574;1.476;2022-08-21T13:17:03;2.33;;;1.25;;
54835;SDS011;43486;43.574;1.476;2022-08-21T13:19:30;5.13;;;2.30;;
54835;SDS011;43486;43.574;1.476;2022-08-21T13:21:56;6.55;;;2.60;;
54835;SDS011;43486;43.574;1.476;2022-08-21T13:24:23;4.57;;;2.15;;
54835;SDS011;43486;43.574;1.476;2022-08-21T13:26:52;5.40;;;1.95;;
54835;SDS011;43486;43.574;1.476;2022-08-21T13:29:19;3.17;;;1.52;;
54835;SDS011;43486;43.574;1.476;2022-08-21T13:31:49;4.38;;;1.38;;
54835;SDS011;43486;43.574;1.476;2022-08-21T13:34:18;2.97;;;1.67;;
54835;SDS011;43486;43.574;1.476;2022-08-21T13:36:45;9.93;;;1.67;;
54835;SDS011;43486;43.574;1.476;2022-08-21T13:39:15;4.70;;;1.75;;
54835;SDS011;43486;43.574;1.476;2022-08-21T13:41:43;4.57;;;2.13;;
54835;SDS011;43486;43.574;1.476;2022-08-21T13:44:23;3.20;;;1.70;;
54835;SDS011;43486;43.574;1.476;2022-08-21T13:46:56;4.50;;;2.13;;
54835;SDS011;43486;43.574;1.476;2022-08-21T13:49:33;4.43;;;1.52;;
54835;SDS011;43486;43.574;1.476;2022-08-21T13:52:00;6.50;;;1.77;;
54835;SDS011;43486;43.574;1.476;2022-08-21T13:54:51;3.40;;;1.98;;
54835;SDS011;43486;43.574;1.476;2022-08-21T13:57:24;3.45;;;1.48;;
54835;SDS011;43486;43.574;1.476;2022-08-21T13:59:52;12.18;;;2.47;;
54835;SDS011;43486;43.574;1.476;2022-08-21T14:02:22;6.10;;;2.65;;
54835;SDS011;43486;43.574;1.476;2022-08-21T14:07:20;7.97;;;1.95;;
54835;SDS011;43486;43.574;1.476;2022-08-21T14:10:10;4.25;;;1.88;;
54835;SDS011;43486;43.574;1.476;2022-08-21T14:12:43;5.80;;;1.92;;
54835;SDS011;43486;43.574;1.476;2022-08-21T14:15:12;3.28;;;1.73;;
54835;SDS011;43486;43.574;1.476;2022-08-21T14:17:39;4.32;;;1.70;;
54835;SDS011;43486;43.574;1.476;2022-08-21T14:20:07;6.85;;;1.77;;
54835;SDS011;43486;43.574;1.476;2022-08-21T14:27:43;5.70;;;2.17;;
54835;SDS011;43486;43.574;1.476;2022-08-21T14:30:18;5.05;;;2.38;;
54835;SDS011;43486;43.574;1.476;2022-08-21T14:32:46;6.95;;;2.13;;
54835;SDS011;43486;43.574;1.476;2022-08-21T14:35:12;4.55;;;1.75;;
54835;SDS011;43486;43.574;1.476;2022-08-21T14:37:41;7.47;;;1.77;;
54835;SDS011;43486;43.574;1.476;2022-08-21T14:40:07;4.00;;;2.03;;
54835;SDS011;43486;43.574;1.476;2022-08-21T14:42:33;15.00;;;2.05;;
54835;SDS011;43486;43.574;1.476;2022-08-21T14:45:00;6.38;;;2.55;;
54835;SDS011;43486;43.574;1.476;2022-08-21T14:47:32;5.22;;;2.35;;
54835;SDS011;43486;43.574;1.476;2022-08-21T14:49:58;8.35;;;1.92;;
54835;SDS011;43486;43.574;1.476;2022-08-21T14:52:23;5.63;;;2.25;;
54835;SDS011;43486;43.574;1.476;2022-08-21T14:54:48;12.02;;;2.70;;
54835;SDS011;43486;43.574;1.476;2022-08-21T14:57:14;3.60;;;2.40;;
54835;SDS011;43486;43.574;1.476;2022-08-21T14:59:40;3.75;;;1.60;;
54835;SDS011;43486;43.574;1.476;2022-08-21T15:02:06;5.35;;;1.98;;
54835;SDS011;43486;43.574;1.476;2022-08-21T15:04:32;10.30;;;2.00;;
54835;SDS011;43486;43.574;1.476;2022-08-21T15:06:59;3.38;;;1.70;;
54835;SDS011;43486;43.574;1.476;2022-08-21T15:09:24;4.03;;;2.22;;
54835;SDS011;43486;43.574;1.476;2022-08-21T15:11:51;4.85;;;2.45;;
54835;SDS011;43486;43.574;1.476;2022-08-21T15:14:19;3.55;;;1.90;;
54835;SDS011;43486;43.574;1.476;2022-08-21T15:16:47;4.30;;;1.88;;
54835;SDS011;43486;43.574;1.476;2022-08-21T15:19:13;2.25;;;1.60;;
54835;SDS011;43486;43.574;1.476;2022-08-21T15:21:38;2.58;;;1.52;;
54835;SDS011;43486;43.574;1.476;2022-08-21T15:24:03;8.77;;;2.00;;
54835;SDS011;43486;43.574;1.476;2022-08-21T15:26:29;20.67;;;2.00;;
54835;SDS011;43486;43.574;1.476;2022-08-21T15:28:54;3.97;;;1.90;;
54835;SDS011;43486;43.574;1.476;2022-08-21T15:31:20;5.25;;;1.58;;
54835;SDS011;43486;43.574;1.476;2022-08-21T15:33:45;2.53;;;1.40;;
54835;SDS011;43486;43.574;1.476;2022-08-21T15:36:10;2.60;;;1.70;;
54835;SDS011;43486;43.574;1.476;2022-08-21T15:38:36;6.13;;;1.45;;
54835;SDS011;43486;43.574;1.476;2022-08-21T15:41:02;5.10;;;2.28;;
54835;SDS011;43486;43.574;1.476;2022-08-21T15:43:29;3.55;;;1.98;;
54835;SDS011;43486;43.574;1.476;2022-08-21T15:46:00;2.30;;;1.33;;
54835;SDS011;43486;43.574;1.476;2022-08-21T15:48:26;2.72;;;1.30;;
54835;SDS011;43486;43.574;1.476;2022-08-21T15:50:52;3.30;;;1.60;;
54835;SDS011;43486;43.574;1.476;2022-08-21T15:53:17;11.32;;;2.00;;
54835;SDS011;43486;43.574;1.476;2022-08-21T15:55:43;2.72;;;1.50;;
54835;SDS011;43486;43.574;1.476;2022-08-21T15:58:11;4.80;;;1.80;;
54835;SDS011;43486;43.574;1.476;2022-08-21T16:00:38;2.63;;;1.58;;
54835;SDS011;43486;43.574;1.476;2022-08-21T16:03:04;3.35;;;1.27;;
54835;SDS011;43486;43.574;1.476;2022-08-21T16:05:31;2.55;;;1.45;;
54835;SDS011;43486;43.574;1.476;2022-08-21T16:07:56;3.55;;;1.63;;
54835;SDS011;43486;43.574;1.476;2022-08-21T16:10:23;2.42;;;1.60;;
54835;SDS011;43486;43.574;1.476;2022-08-21T16:12:58;2.50;;;1.38;;
54835;SDS011;43486;43.574;1.476;2022-08-21T16:15:27;3.40;;;1.50;;
54835;SDS011;43486;43.574;1.476;2022-08-21T16:17:53;2.20;;;1.27;;
54835;SDS011;43486;43.574;1.476;2022-08-21T16:20:20;3.22;;;1.70;;